sensor_id;sensor_type;location;lat;lon;timestamp;temperature;humidity
67141;DHT22;54058;52.010;5.546;2023-05-10T00:00:07;14.60;92.60
67141;DHT22;54058;52.010;5.546;2023-05-10T00:02:34;14.50;92.70
67141;DHT22;54058;52.010;5.546;2023-05-10T00:05:00;14.50;92.80
67141;DHT22;54058;52.010;5.546;2023-05-10T00:07:26;14.40;92.80
67141;DHT22;54058;52.010;5.546;2023-05-10T00:09:52;14.50;92.90
67141;DHT22;54058;52.010;5.546;2023-05-10T00:12:17;14.50;92.90
67141;DHT22;54058;52.010;5.546;2023-05-10T00:14:43;14.50;92.90
67141;DHT22;54058;52.010;5.546;2023-05-10T00:17:08;14.50;92.90
67141;DHT22;54058;52.010;5.546;2023-05-10T00:19:34;14.50;92.90
67141;DHT22;54058;52.010;5.546;2023-05-10T00:22:00;14.50;93.20
67141;DHT22;54058;52.010;5.546;2023-05-10T00:24:25;14.50;92.90
67141;DHT22;54058;52.010;5.546;2023-05-10T00:26:51;14.50;93.20
67141;DHT22;54058;52.010;5.546;2023-05-10T00:29:16;14.50;93.00
67141;DHT22;54058;52.010;5.546;2023-05-10T00:31:42;14.50;93.00
67141;DHT22;54058;52.010;5.546;2023-05-10T00:34:08;14.50;93.00
67141;DHT22;54058;52.010;5.546;2023-05-10T00:36:33;14.50;93.00
67141;DHT22;54058;52.010;5.546;2023-05-10T00:38:59;14.60;93.10
67141;DHT22;54058;52.010;5.546;2023-05-10T00:41:25;14.60;93.00
67141;DHT22;54058;52.010;5.546;2023-05-10T00:43:50;14.60;93.00
67141;DHT22;54058;52.010;5.546;2023-05-10T00:46:16;14.60;92.90
67141;DHT22;54058;52.010;5.546;2023-05-10T00:48:43;14.50;92.90
67141;DHT22;54058;52.010;5.546;2023-05-10T00:51:09;14.50;93.00
67141;DHT22;54058;52.010;5.546;2023-05-10T00:53:35;14.50;93.00
67141;DHT22;54058;52.010;5.546;2023-05-10T00:56:01;14.60;93.00
67141;DHT22;54058;52.010;5.546;2023-05-10T00:58:28;14.60;93.00
67141;DHT22;54058;52.010;5.546;2023-05-10T01:00:55;14.60;93.50
67141;DHT22;54058;52.010;5.546;2023-05-10T01:03:22;14.60;93.30
67141;DHT22;54058;52.010;5.546;2023-05-10T01:05:47;14.50;93.00
67141;DHT22;54058;52.010;5.546;2023-05-10T01:08:13;14.50;93.00
67141;DHT22;54058;52.010;5.546;2023-05-10T01:10:39;14.60;93.00
67141;DHT22;54058;52.010;5.546;2023-05-10T01:13:05;14.60;93.00
67141;DHT22;54058;52.010;5.546;2023-05-10T01:15:31;14.60;93.00
67141;DHT22;54058;52.010;5.546;2023-05-10T01:17:57;14.60;93.00
67141;DHT22;54058;52.010;5.546;2023-05-10T01:20:23;14.60;93.00
67141;DHT22;54058;52.010;5.546;2023-05-10T01:26:07;14.60;93.20
67141;DHT22;54058;52.010;5.546;2023-05-10T01:34:16;14.50;93.40
67141;DHT22;54058;52.010;5.546;2023-05-10T01:36:59;14.50;93.40
67141;DHT22;54058;52.010;5.546;2023-05-10T01:39:47;14.60;93.40
67141;DHT22;54058;52.010;5.546;2023-05-10T01:42:26;14.60;93.40
67141;DHT22;54058;52.010;5.546;2023-05-10T01:45:11;14.60;93.30
67141;DHT22;54058;52.010;5.546;2023-05-10T01:47:43;14.60;93.40
67141;DHT22;54058;52.010;5.546;2023-05-10T01:50:15;14.50;93.30
67141;DHT22;54058;52.010;5.546;2023-05-10T01:52:44;14.50;93.40
67141;DHT22;54058;52.010;5.546;2023-05-10T01:55:15;14.50;93.50
67141;DHT22;54058;52.010;5.546;2023-05-10T01:57:44;14.50;93.50
67141;DHT22;54058;52.010;5.546;2023-05-10T02:00:12;14.50;93.50
67141;DHT22;54058;52.010;5.546;2023-05-10T02:02:40;14.50;93.60
67141;DHT22;54058;52.010;5.546;2023-05-10T02:05:08;14.50;93.60
67141;DHT22;54058;52.010;5.546;2023-05-10T02:07:36;14.50;93.60
67141;DHT22;54058;52.010;5.546;2023-05-10T02:10:06;14.50;93.50
67141;DHT22;54058;52.010;5.546;2023-05-10T02:12:36;14.50;93.50
67141;DHT22;54058;52.010;5.546;2023-05-10T02:15:05;14.50;93.60
67141;DHT22;54058;52.010;5.546;2023-05-10T02:17:32;14.50;93.50
67141;DHT22;54058;52.010;5.546;2023-05-10T02:19:59;14.50;93.50
67141;DHT22;54058;52.010;5.546;2023-05-10T02:22:27;14.60;93.50
67141;DHT22;54058;52.010;5.546;2023-05-10T02:24:55;14.60;93.50
67141;DHT22;54058;52.010;5.546;2023-05-10T02:27:24;14.60;93.40
67141;DHT22;54058;52.010;5.546;2023-05-10T02:29:51;14.60;93.50
67141;DHT22;54058;52.010;5.546;2023-05-10T02:32:18;14.60;93.40
67141;DHT22;54058;52.010;5.546;2023-05-10T02:34:44;14.60;93.40
67141;DHT22;54058;52.010;5.546;2023-05-10T02:37:13;14.60;93.30
67141;DHT22;54058;52.010;5.546;2023-05-10T02:39:40;14.60;93.30
67141;DHT22;54058;52.010;5.546;2023-05-10T02:42:16;14.60;93.40
67141;DHT22;54058;52.010;5.546;2023-05-10T02:44:43;14.60;93.40
67141;DHT22;54058;52.010;5.546;2023-05-10T02:47:11;14.60;93.40
67141;DHT22;54058;52.010;5.546;2023-05-10T02:49:36;14.60;93.40
67141;DHT22;54058;52.010;5.546;2023-05-10T02:52:05;14.60;93.40
67141;DHT22;54058;52.010;5.546;2023-05-10T02:54:34;14.60;93.40
67141;DHT22;54058;52.010;5.546;2023-05-10T02:57:04;14.70;93.40
67141;DHT22;54058;52.010;5.546;2023-05-10T02:59:31;14.70;93.30
67141;DHT22;54058;52.010;5.546;2023-05-10T03:01:58;14.70;93.30
67141;DHT22;54058;52.010;5.546;2023-05-10T03:04:25;14.60;93.30
67141;DHT22;54058;52.010;5.546;2023-05-10T03:06:51;14.60;93.40
67141;DHT22;54058;52.010;5.546;2023-05-10T03:09:17;14.50;93.50
67141;DHT22;54058;52.010;5.546;2023-05-10T03:14:57;14.40;93.60
67141;DHT22;54058;52.010;5.546;2023-05-10T03:17:30;14.40;93.70
67141;DHT22;54058;52.010;5.546;2023-05-10T03:20:06;14.40;93.70
67141;DHT22;54058;52.010;5.546;2023-05-10T03:22:38;14.30;93.70
67141;DHT22;54058;52.010;5.546;2023-05-10T03:25:07;14.30;93.80
67141;DHT22;54058;52.010;5.546;2023-05-10T03:27:35;14.30;93.70
67141;DHT22;54058;52.010;5.546;2023-05-10T03:30:02;14.30;93.70
67141;DHT22;54058;52.010;5.546;2023-05-10T03:32:29;14.20;93.70
67141;DHT22;54058;52.010;5.546;2023-05-10T03:34:55;14.20;93.80
67141;DHT22;54058;52.010;5.546;2023-05-10T03:37:21;14.20;93.90
67141;DHT22;54058;52.010;5.546;2023-05-10T03:39:46;14.20;93.80
67141;DHT22;54058;52.010;5.546;2023-05-10T03:42:12;14.20;93.80
67141;DHT22;54058;52.010;5.546;2023-05-10T03:44:39;14.20;93.80
67141;DHT22;54058;52.010;5.546;2023-05-10T03:47:05;14.20;93.80
67141;DHT22;54058;52.010;5.546;2023-05-10T03:49:30;14.10;93.80
67141;DHT22;54058;52.010;5.546;2023-05-10T03:51:56;14.10;93.80
67141;DHT22;54058;52.010;5.546;2023-05-10T03:54:21;14.10;93.80
67141;DHT22;54058;52.010;5.546;2023-05-10T03:56:47;14.10;93.90
67141;DHT22;54058;52.010;5.546;2023-05-10T03:59:13;14.00;93.90
67141;DHT22;54058;52.010;5.546;2023-05-10T04:01:39;14.00;94.00
67141;DHT22;54058;52.010;5.546;2023-05-10T04:04:04;14.00;94.00
67141;DHT22;54058;52.010;5.546;2023-05-10T04:06:30;14.10;94.00
67141;DHT22;54058;52.010;5.546;2023-05-10T04:08:56;14.10;94.20
67141;DHT22;54058;52.010;5.546;2023-05-10T04:11:21;14.10;94.00
67141;DHT22;54058;52.010;5.546;2023-05-10T04:13:47;14.00;94.00
67141;DHT22;54058;52.010;5.546;2023-05-10T04:16:13;14.10;94.00
67141;DHT22;54058;52.010;5.546;2023-05-10T04:18:39;14.10;94.00
67141;DHT22;54058;52.010;5.546;2023-05-10T04:21:13;14.10;94.00
67141;DHT22;54058;52.010;5.546;2023-05-10T04:23:39;14.10;94.00
67141;DHT22;54058;52.010;5.546;2023-05-10T04:26:05;14.10;94.00
67141;DHT22;54058;52.010;5.546;2023-05-10T04:28:31;14.10;94.00
67141;DHT22;54058;52.010;5.546;2023-05-10T04:31:03;14.10;94.00
67141;DHT22;54058;52.010;5.546;2023-05-10T04:33:29;14.10;94.00
67141;DHT22;54058;52.010;5.546;2023-05-10T04:35:55;14.10;93.90
67141;DHT22;54058;52.010;5.546;2023-05-10T04:38:20;14.10;94.00
67141;DHT22;54058;52.010;5.546;2023-05-10T04:40:46;14.10;94.00
67141;DHT22;54058;52.010;5.546;2023-05-10T04:43:12;14.20;94.00
67141;DHT22;54058;52.010;5.546;2023-05-10T04:45:37;14.10;94.00
67141;DHT22;54058;52.010;5.546;2023-05-10T04:48:03;14.10;94.00
67141;DHT22;54058;52.010;5.546;2023-05-10T04:50:29;14.10;94.00
67141;DHT22;54058;52.010;5.546;2023-05-10T04:52:54;14.10;94.00
67141;DHT22;54058;52.010;5.546;2023-05-10T04:55:20;14.10;94.00
67141;DHT22;54058;52.010;5.546;2023-05-10T04:57:46;14.10;94.00
67141;DHT22;54058;52.010;5.546;2023-05-10T05:00:12;14.10;94.10
67141;DHT22;54058;52.010;5.546;2023-05-10T05:02:38;14.10;94.10
67141;DHT22;54058;52.010;5.546;2023-05-10T05:05:04;14.10;94.10
67141;DHT22;54058;52.010;5.546;2023-05-10T05:07:29;14.10;94.20
67141;DHT22;54058;52.010;5.546;2023-05-10T05:09:56;14.20;94.20
67141;DHT22;54058;52.010;5.546;2023-05-10T05:12:21;14.20;94.20
67141;DHT22;54058;52.010;5.546;2023-05-10T05:14:47;14.20;94.20
67141;DHT22;54058;52.010;5.546;2023-05-10T05:17:12;14.20;94.20
67141;DHT22;54058;52.010;5.546;2023-05-10T05:19:39;14.30;94.10
67141;DHT22;54058;52.010;5.546;2023-05-10T05:22:06;14.30;94.40
67141;DHT22;54058;52.010;5.546;2023-05-10T05:24:36;14.30;94.10
67141;DHT22;54058;52.010;5.546;2023-05-10T05:27:04;14.40;94.10
67141;DHT22;54058;52.010;5.546;2023-05-10T05:29:31;14.40;94.10
67141;DHT22;54058;52.010;5.546;2023-05-10T05:31:56;14.40;94.10
67141;DHT22;54058;52.010;5.546;2023-05-10T05:34:22;14.40;94.10
67141;DHT22;54058;52.010;5.546;2023-05-10T05:36:48;14.40;94.20
67141;DHT22;54058;52.010;5.546;2023-05-10T05:39:14;14.40;94.20
67141;DHT22;54058;52.010;5.546;2023-05-10T05:41:39;14.40;94.10
67141;DHT22;54058;52.010;5.546;2023-05-10T05:44:05;14.50;94.20
67141;DHT22;54058;52.010;5.546;2023-05-10T05:46:30;14.50;94.20
67141;DHT22;54058;52.010;5.546;2023-05-10T05:48:56;14.50;94.20
67141;DHT22;54058;52.010;5.546;2023-05-10T05:51:22;14.50;94.20
67141;DHT22;54058;52.010;5.546;2023-05-10T05:53:47;14.50;94.20
67141;DHT22;54058;52.010;5.546;2023-05-10T05:56:13;14.50;94.30
67141;DHT22;54058;52.010;5.546;2023-05-10T05:58:39;14.50;94.30
67141;DHT22;54058;52.010;5.546;2023-05-10T06:01:04;14.50;94.30
67141;DHT22;54058;52.010;5.546;2023-05-10T06:03:30;14.50;94.30
67141;DHT22;54058;52.010;5.546;2023-05-10T06:05:56;14.50;94.30
67141;DHT22;54058;52.010;5.546;2023-05-10T06:08:21;14.50;94.40
67141;DHT22;54058;52.010;5.546;2023-05-10T06:10:47;14.50;94.40
67141;DHT22;54058;52.010;5.546;2023-05-10T06:13:13;14.50;94.30
67141;DHT22;54058;52.010;5.546;2023-05-10T06:15:39;14.50;94.60
67141;DHT22;54058;52.010;5.546;2023-05-10T06:18:05;14.50;94.40
67141;DHT22;54058;52.010;5.546;2023-05-10T06:20:31;14.50;94.40
67141;DHT22;54058;52.010;5.546;2023-05-10T06:22:57;14.50;94.30
67141;DHT22;54058;52.010;5.546;2023-05-10T06:25:23;14.60;94.30
67141;DHT22;54058;52.010;5.546;2023-05-10T06:27:49;14.50;94.30
67141;DHT22;54058;52.010;5.546;2023-05-10T06:30:15;14.50;94.30
67141;DHT22;54058;52.010;5.546;2023-05-10T06:32:41;14.50;94.40
67141;DHT22;54058;52.010;5.546;2023-05-10T06:35:07;14.60;94.40
67141;DHT22;54058;52.010;5.546;2023-05-10T06:37:33;14.60;94.40
67141;DHT22;54058;52.010;5.546;2023-05-10T06:39:59;14.50;94.30
67141;DHT22;54058;52.010;5.546;2023-05-10T06:42:26;14.50;94.40
67141;DHT22;54058;52.010;5.546;2023-05-10T06:44:52;14.50;94.40
67141;DHT22;54058;52.010;5.546;2023-05-10T06:47:18;14.60;94.40
67141;DHT22;54058;52.010;5.546;2023-05-10T06:49:44;14.50;94.40
67141;DHT22;54058;52.010;5.546;2023-05-10T06:52:09;14.60;94.50
67141;DHT22;54058;52.010;5.546;2023-05-10T06:54:35;14.60;94.50
67141;DHT22;54058;52.010;5.546;2023-05-10T06:57:01;14.60;94.50
67141;DHT22;54058;52.010;5.546;2023-05-10T06:59:28;14.70;94.50
67141;DHT22;54058;52.010;5.546;2023-05-10T07:01:54;14.70;94.40
67141;DHT22;54058;52.010;5.546;2023-05-10T07:04:19;14.70;94.50
67141;DHT22;54058;52.010;5.546;2023-05-10T07:06:45;14.70;94.50
67141;DHT22;54058;52.010;5.546;2023-05-10T07:09:11;14.80;94.60
67141;DHT22;54058;52.010;5.546;2023-05-10T07:11:38;14.80;94.60
67141;DHT22;54058;52.010;5.546;2023-05-10T07:14:04;14.90;94.60
67141;DHT22;54058;52.010;5.546;2023-05-10T07:16:30;14.90;94.60
67141;DHT22;54058;52.010;5.546;2023-05-10T07:18:56;14.90;94.60
67141;DHT22;54058;52.010;5.546;2023-05-10T07:21:21;15.00;94.60
67141;DHT22;54058;52.010;5.546;2023-05-10T07:23:49;14.90;94.60
67141;DHT22;54058;52.010;5.546;2023-05-10T07:26:15;14.90;94.70
67141;DHT22;54058;52.010;5.546;2023-05-10T07:28:41;15.00;94.70
67141;DHT22;54058;52.010;5.546;2023-05-10T07:31:07;15.10;94.70
67141;DHT22;54058;52.010;5.546;2023-05-10T07:33:32;15.20;94.70
67141;DHT22;54058;52.010;5.546;2023-05-10T07:35:58;15.20;94.70
67141;DHT22;54058;52.010;5.546;2023-05-10T07:38:23;15.20;94.60
67141;DHT22;54058;52.010;5.546;2023-05-10T07:40:49;15.20;94.60
67141;DHT22;54058;52.010;5.546;2023-05-10T07:43:15;15.20;94.60
67141;DHT22;54058;52.010;5.546;2023-05-10T07:45:40;15.30;94.60
67141;DHT22;54058;52.010;5.546;2023-05-10T07:48:06;15.30;94.60
67141;DHT22;54058;52.010;5.546;2023-05-10T07:50:31;15.30;94.60
67141;DHT22;54058;52.010;5.546;2023-05-10T07:52:57;15.20;94.50
67141;DHT22;54058;52.010;5.546;2023-05-10T07:55:23;15.20;94.50
67141;DHT22;54058;52.010;5.546;2023-05-10T07:57:48;15.20;94.60
67141;DHT22;54058;52.010;5.546;2023-05-10T08:00:18;15.10;94.50
67141;DHT22;54058;52.010;5.546;2023-05-10T08:02:43;15.00;94.50
67141;DHT22;54058;52.010;5.546;2023-05-10T08:05:09;15.10;94.70
67141;DHT22;54058;52.010;5.546;2023-05-10T08:07:35;15.10;94.70
67141;DHT22;54058;52.010;5.546;2023-05-10T08:10:01;15.10;94.70
67141;DHT22;54058;52.010;5.546;2023-05-10T08:12:27;15.10;94.70
67141;DHT22;54058;52.010;5.546;2023-05-10T08:14:52;15.10;94.60
67141;DHT22;54058;52.010;5.546;2023-05-10T08:17:18;15.20;94.70
67141;DHT22;54058;52.010;5.546;2023-05-10T08:19:44;15.30;94.80
67141;DHT22;54058;52.010;5.546;2023-05-10T08:22:09;15.30;94.70
67141;DHT22;54058;52.010;5.546;2023-05-10T08:24:35;15.50;94.70
67141;DHT22;54058;52.010;5.546;2023-05-10T08:27:05;15.50;94.60
67141;DHT22;54058;52.010;5.546;2023-05-10T08:29:30;15.60;94.60
67141;DHT22;54058;52.010;5.546;2023-05-10T08:31:56;15.70;94.50
67141;DHT22;54058;52.010;5.546;2023-05-10T08:34:22;15.80;94.40
67141;DHT22;54058;52.010;5.546;2023-05-10T08:36:47;15.80;94.40
67141;DHT22;54058;52.010;5.546;2023-05-10T08:39:13;15.80;94.40
67141;DHT22;54058;52.010;5.546;2023-05-10T08:41:39;15.80;94.40
67141;DHT22;54058;52.010;5.546;2023-05-10T08:44:07;15.80;94.50
67141;DHT22;54058;52.010;5.546;2023-05-10T08:46:33;15.90;94.50
67141;DHT22;54058;52.010;5.546;2023-05-10T08:49:02;15.90;94.50
67141;DHT22;54058;52.010;5.546;2023-05-10T08:51:33;16.00;94.50
67141;DHT22;54058;52.010;5.546;2023-05-10T08:54:01;16.10;94.40
67141;DHT22;54058;52.010;5.546;2023-05-10T08:56:27;16.10;94.40
67141;DHT22;54058;52.010;5.546;2023-05-10T08:58:53;16.10;92.90
67141;DHT22;54058;52.010;5.546;2023-05-10T09:01:21;16.30;94.00
67141;DHT22;54058;52.010;5.546;2023-05-10T09:03:47;16.40;93.70
67141;DHT22;54058;52.010;5.546;2023-05-10T09:06:13;16.40;93.70
67141;DHT22;54058;52.010;5.546;2023-05-10T09:08:41;16.40;93.80
67141;DHT22;54058;52.010;5.546;2023-05-10T09:11:08;16.40;93.90
67141;DHT22;54058;52.010;5.546;2023-05-10T09:13:35;16.40;93.90
67141;DHT22;54058;52.010;5.546;2023-05-10T09:16:02;16.40;94.00
67141;DHT22;54058;52.010;5.546;2023-05-10T09:18:28;16.40;93.90
67141;DHT22;54058;52.010;5.546;2023-05-10T09:20:54;16.30;93.90
67141;DHT22;54058;52.010;5.546;2023-05-10T09:23:20;16.20;94.00
67141;DHT22;54058;52.010;5.546;2023-05-10T09:25:47;16.20;94.10
67141;DHT22;54058;52.010;5.546;2023-05-10T09:28:12;16.20;94.10
67141;DHT22;54058;52.010;5.546;2023-05-10T09:30:38;16.10;94.10
67141;DHT22;54058;52.010;5.546;2023-05-10T09:33:04;16.10;94.10
67141;DHT22;54058;52.010;5.546;2023-05-10T09:35:31;16.10;94.20
67141;DHT22;54058;52.010;5.546;2023-05-10T09:38:01;16.10;94.10
67141;DHT22;54058;52.010;5.546;2023-05-10T09:40:29;16.10;93.90
67141;DHT22;54058;52.010;5.546;2023-05-10T09:43:07;16.10;94.00
67141;DHT22;54058;52.010;5.546;2023-05-10T09:45:35;16.20;94.00
67141;DHT22;54058;52.010;5.546;2023-05-10T09:48:01;16.40;93.80
67141;DHT22;54058;52.010;5.546;2023-05-10T09:50:28;16.50;93.80
67141;DHT22;54058;52.010;5.546;2023-05-10T09:52:58;16.60;93.60
67141;DHT22;54058;52.010;5.546;2023-05-10T09:55:26;16.70;93.60
67141;DHT22;54058;52.010;5.546;2023-05-10T09:58:03;16.80;93.60
67141;DHT22;54058;52.010;5.546;2023-05-10T10:00:34;16.90;93.50
67141;DHT22;54058;52.010;5.546;2023-05-10T10:03:01;17.10;93.30
67141;DHT22;54058;52.010;5.546;2023-05-10T10:05:41;17.10;93.20
67141;DHT22;54058;52.010;5.546;2023-05-10T10:08:11;17.10;93.00
67141;DHT22;54058;52.010;5.546;2023-05-10T10:10:37;17.20;93.20
67141;DHT22;54058;52.010;5.546;2023-05-10T10:13:05;17.10;92.60
67141;DHT22;54058;52.010;5.546;2023-05-10T10:15:33;17.00;92.90
67141;DHT22;54058;52.010;5.546;2023-05-10T10:17:59;17.00;92.40
67141;DHT22;54058;52.010;5.546;2023-05-10T10:20:26;16.90;92.70
67141;DHT22;54058;52.010;5.546;2023-05-10T10:22:52;16.90;92.80
67141;DHT22;54058;52.010;5.546;2023-05-10T10:25:19;17.00;92.90
67141;DHT22;54058;52.010;5.546;2023-05-10T10:30:26;17.10;92.70
67141;DHT22;54058;52.010;5.546;2023-05-10T10:35:36;17.00;92.20
67141;DHT22;54058;52.010;5.546;2023-05-10T10:38:02;17.00;92.60
67141;DHT22;54058;52.010;5.546;2023-05-10T10:40:37;17.00;92.60
67141;DHT22;54058;52.010;5.546;2023-05-10T10:46:17;17.20;92.30
67141;DHT22;54058;52.010;5.546;2023-05-10T10:49:08;17.30;92.20
67141;DHT22;54058;52.010;5.546;2023-05-10T10:51:38;17.40;92.40
67141;DHT22;54058;52.010;5.546;2023-05-10T10:54:10;17.50;92.00
67141;DHT22;54058;52.010;5.546;2023-05-10T10:56:36;17.40;91.50
67141;DHT22;54058;52.010;5.546;2023-05-10T10:59:01;17.20;91.80
67141;DHT22;54058;52.010;5.546;2023-05-10T11:01:35;17.20;92.00
67141;DHT22;54058;52.010;5.546;2023-05-10T11:06:30;17.30;92.10
67141;DHT22;54058;52.010;5.546;2023-05-10T11:09:04;17.30;91.90
67141;DHT22;54058;52.010;5.546;2023-05-10T11:11:31;17.40;92.30
67141;DHT22;54058;52.010;5.546;2023-05-10T11:14:03;17.50;91.90
67141;DHT22;54058;52.010;5.546;2023-05-10T11:16:43;17.60;91.80
67141;DHT22;54058;52.010;5.546;2023-05-10T11:19:14;17.70;91.60
67141;DHT22;54058;52.010;5.546;2023-05-10T11:24:30;17.80;91.50
67141;DHT22;54058;52.010;5.546;2023-05-10T11:26:56;17.80;91.70
67141;DHT22;54058;52.010;5.546;2023-05-10T11:29:22;17.90;91.70
67141;DHT22;54058;52.010;5.546;2023-05-10T11:31:50;17.90;91.60
67141;DHT22;54058;52.010;5.546;2023-05-10T11:34:30;17.90;91.70
67141;DHT22;54058;52.010;5.546;2023-05-10T11:36:57;17.80;91.20
67141;DHT22;54058;52.010;5.546;2023-05-10T11:39:30;17.90;91.40
67141;DHT22;54058;52.010;5.546;2023-05-10T11:41:57;17.90;91.10
67141;DHT22;54058;52.010;5.546;2023-05-10T11:44:24;17.80;91.10
67141;DHT22;54058;52.010;5.546;2023-05-10T11:46:50;17.80;91.30
67141;DHT22;54058;52.010;5.546;2023-05-10T11:49:15;17.90;89.70
67141;DHT22;54058;52.010;5.546;2023-05-10T11:51:41;18.00;91.30
67141;DHT22;54058;52.010;5.546;2023-05-10T11:54:10;18.10;91.10
67141;DHT22;54058;52.010;5.546;2023-05-10T11:56:40;18.00;91.00
67141;DHT22;54058;52.010;5.546;2023-05-10T11:59:06;18.00;90.90
67141;DHT22;54058;52.010;5.546;2023-05-10T12:01:32;18.00;91.10
67141;DHT22;54058;52.010;5.546;2023-05-10T12:03:58;18.20;91.10
67141;DHT22;54058;52.010;5.546;2023-05-10T12:06:32;18.30;90.80
67141;DHT22;54058;52.010;5.546;2023-05-10T12:09:06;18.50;90.20
67141;DHT22;54058;52.010;5.546;2023-05-10T12:11:37;18.60;90.00
67141;DHT22;54058;52.010;5.546;2023-05-10T12:14:04;18.50;89.80
67141;DHT22;54058;52.010;5.546;2023-05-10T12:16:30;18.60;90.10
67141;DHT22;54058;52.010;5.546;2023-05-10T12:18:57;18.80;90.20
67141;DHT22;54058;52.010;5.546;2023-05-10T12:21:24;18.90;88.70
67141;DHT22;54058;52.010;5.546;2023-05-10T12:23:52;18.80;89.90
67141;DHT22;54058;52.010;5.546;2023-05-10T12:26:18;18.70;88.60
67141;DHT22;54058;52.010;5.546;2023-05-10T12:28:43;18.60;89.70
67141;DHT22;54058;52.010;5.546;2023-05-10T12:31:09;18.70;89.70
67141;DHT22;54058;52.010;5.546;2023-05-10T12:33:41;18.80;90.00
67141;DHT22;54058;52.010;5.546;2023-05-10T12:36:08;18.70;89.40
67141;DHT22;54058;52.010;5.546;2023-05-10T12:41:14;18.60;89.50
67141;DHT22;54058;52.010;5.546;2023-05-10T12:43:40;18.50;89.50
67141;DHT22;54058;52.010;5.546;2023-05-10T12:46:10;18.40;89.70
67141;DHT22;54058;52.010;5.546;2023-05-10T12:48:37;18.30;89.90
67141;DHT22;54058;52.010;5.546;2023-05-10T12:51:03;18.30;90.00
67141;DHT22;54058;52.010;5.546;2023-05-10T12:53:29;18.30;87.50
67141;DHT22;54058;52.010;5.546;2023-05-10T12:55:55;18.30;89.80
67141;DHT22;54058;52.010;5.546;2023-05-10T12:58:20;18.20;89.60
67141;DHT22;54058;52.010;5.546;2023-05-10T13:00:46;18.10;89.60
67141;DHT22;54058;52.010;5.546;2023-05-10T13:03:12;18.00;90.10
67141;DHT22;54058;52.010;5.546;2023-05-10T13:05:38;17.90;89.90
67141;DHT22;54058;52.010;5.546;2023-05-10T13:08:03;17.90;89.90
67141;DHT22;54058;52.010;5.546;2023-05-10T13:10:30;17.90;89.70
67141;DHT22;54058;52.010;5.546;2023-05-10T13:12:57;17.70;89.70
67141;DHT22;54058;52.010;5.546;2023-05-10T13:15:23;17.70;89.90
67141;DHT22;54058;52.010;5.546;2023-05-10T13:17:49;17.60;90.00
67141;DHT22;54058;52.010;5.546;2023-05-10T13:20:15;17.40;90.00
67141;DHT22;54058;52.010;5.546;2023-05-10T13:22:42;17.30;90.00
67141;DHT22;54058;52.010;5.546;2023-05-10T13:25:08;17.10;90.00
67141;DHT22;54058;52.010;5.546;2023-05-10T13:27:33;16.80;89.20
67141;DHT22;54058;52.010;5.546;2023-05-10T13:29:59;16.60;90.30
67141;DHT22;54058;52.010;5.546;2023-05-10T13:32:25;16.40;90.40
67141;DHT22;54058;52.010;5.546;2023-05-10T13:34:51;16.30;90.50
67141;DHT22;54058;52.010;5.546;2023-05-10T13:37:17;16.20;90.90
67141;DHT22;54058;52.010;5.546;2023-05-10T13:39:42;16.10;90.70
67141;DHT22;54058;52.010;5.546;2023-05-10T13:42:08;15.90;90.70
67141;DHT22;54058;52.010;5.546;2023-05-10T13:44:34;15.80;90.70
67141;DHT22;54058;52.010;5.546;2023-05-10T13:46:59;15.80;90.80
67141;DHT22;54058;52.010;5.546;2023-05-10T13:49:25;15.70;90.80
67141;DHT22;54058;52.010;5.546;2023-05-10T13:51:51;15.70;90.70
67141;DHT22;54058;52.010;5.546;2023-05-10T13:54:17;15.70;90.80
67141;DHT22;54058;52.010;5.546;2023-05-10T13:56:45;15.70;90.70
67141;DHT22;54058;52.010;5.546;2023-05-10T13:59:12;15.60;90.70
67141;DHT22;54058;52.010;5.546;2023-05-10T14:01:39;15.60;90.80
67141;DHT22;54058;52.010;5.546;2023-05-10T14:04:05;15.60;90.70
67141;DHT22;54058;52.010;5.546;2023-05-10T14:06:31;15.60;90.80
67141;DHT22;54058;52.010;5.546;2023-05-10T14:08:57;15.50;90.80
67141;DHT22;54058;52.010;5.546;2023-05-10T14:11:23;15.40;90.80
67141;DHT22;54058;52.010;5.546;2023-05-10T14:13:48;15.40;90.90
67141;DHT22;54058;52.010;5.546;2023-05-10T14:16:14;15.30;90.90
67141;DHT22;54058;52.010;5.546;2023-05-10T14:18:40;15.30;91.00
67141;DHT22;54058;52.010;5.546;2023-05-10T14:21:05;15.30;91.00
67141;DHT22;54058;52.010;5.546;2023-05-10T14:23:31;15.20;91.10
67141;DHT22;54058;52.010;5.546;2023-05-10T14:25:57;15.20;91.10
67141;DHT22;54058;52.010;5.546;2023-05-10T14:28:23;15.10;91.10
67141;DHT22;54058;52.010;5.546;2023-05-10T14:30:49;15.10;91.20
67141;DHT22;54058;52.010;5.546;2023-05-10T14:33:16;15.10;91.20
67141;DHT22;54058;52.010;5.546;2023-05-10T14:35:42;15.10;91.40
67141;DHT22;54058;52.010;5.546;2023-05-10T14:38:08;15.00;91.40
67141;DHT22;54058;52.010;5.546;2023-05-10T14:40:34;15.10;91.40
67141;DHT22;54058;52.010;5.546;2023-05-10T14:43:00;15.10;91.40
67141;DHT22;54058;52.010;5.546;2023-05-10T14:45:25;15.10;91.40
67141;DHT22;54058;52.010;5.546;2023-05-10T14:47:51;15.10;91.40
67141;DHT22;54058;52.010;5.546;2023-05-10T14:50:16;15.20;91.40
67141;DHT22;54058;52.010;5.546;2023-05-10T14:52:43;15.20;91.40
67141;DHT22;54058;52.010;5.546;2023-05-10T14:55:09;15.20;91.40
67141;DHT22;54058;52.010;5.546;2023-05-10T14:57:35;15.20;91.40
67141;DHT22;54058;52.010;5.546;2023-05-10T15:00:01;15.20;91.50
67141;DHT22;54058;52.010;5.546;2023-05-10T15:02:27;15.20;91.60
67141;DHT22;54058;52.010;5.546;2023-05-10T15:04:53;15.10;91.60
67141;DHT22;54058;52.010;5.546;2023-05-10T15:07:19;15.20;91.70
67141;DHT22;54058;52.010;5.546;2023-05-10T15:09:45;15.20;91.80
67141;DHT22;54058;52.010;5.546;2023-05-10T15:12:11;15.20;91.80
67141;DHT22;54058;52.010;5.546;2023-05-10T15:14:36;15.20;91.80
67141;DHT22;54058;52.010;5.546;2023-05-10T15:17:02;15.20;91.90
67141;DHT22;54058;52.010;5.546;2023-05-10T15:19:28;15.20;91.90
67141;DHT22;54058;52.010;5.546;2023-05-10T15:21:54;15.40;91.90
67141;DHT22;54058;52.010;5.546;2023-05-10T15:24:21;15.40;91.90
67141;DHT22;54058;52.010;5.546;2023-05-10T15:26:47;15.30;92.10
67141;DHT22;54058;52.010;5.546;2023-05-10T15:29:12;15.30;92.20
67141;DHT22;54058;52.010;5.546;2023-05-10T15:31:45;15.40;92.20
67141;DHT22;54058;52.010;5.546;2023-05-10T15:34:11;15.40;92.10
67141;DHT22;54058;52.010;5.546;2023-05-10T15:36:36;15.50;92.10
67141;DHT22;54058;52.010;5.546;2023-05-10T15:39:02;15.70;92.10
67141;DHT22;54058;52.010;5.546;2023-05-10T15:41:28;15.80;92.00
67141;DHT22;54058;52.010;5.546;2023-05-10T15:43:54;15.90;91.90
67141;DHT22;54058;52.010;5.546;2023-05-10T15:46:20;16.00;91.90
67141;DHT22;54058;52.010;5.546;2023-05-10T15:48:46;16.00;92.00
67141;DHT22;54058;52.010;5.546;2023-05-10T15:51:12;16.00;91.90
67141;DHT22;54058;52.010;5.546;2023-05-10T15:53:38;16.10;91.90
67141;DHT22;54058;52.010;5.546;2023-05-10T15:56:04;16.10;92.00